Terminal Aerodrome Forecast
Issued by NWS

Home | Current Version | Previous Version | Text Only | Print | Product List | Glossary On
Versions: 1 2 3 4 5 6 7 8 9 10 11 12
602
FTUS46 KEKA 041720
TAFUKI
TAF
KUKI 041720Z 0418/0518 00000KT P6SM SCT250
     FM042100 31006KT P6SM BKN150
     FM050300 36008KT P6SM BKN050
     FM050700 32005KT P6SM BKN020=

USA.gov is the U.S. government's official web portal to all federal, state and local government web resources and services.